110520Z 13003KT 9999 BKN009 M00/M00 Q0996 RWY 14 ICE 26-50 PCT FCT 0.39=

110530Z 1106/1115 15008KT 9999 SCT005 BKN020 TEMPO 1106/1115 1000 SHSN VV004 BKN020CB=
Källa: Luftfartsverket (aro.lfv.se)